Terminal Aerodrome Forecast
Issued by NWS Corpus Christi, TX

Home | Current Version | Previous Version | Text Only | Print | Product List | Glossary On
Versions: 1 2 3 4 5 6 7 8 9 10 11 12 13 14 15 16 17 18 19 20
000
FTUS44 KCRP 180900 AAA
TAFVCT
TAF AMD
KVCT 180922Z 1809/1906 35004KT P6SM SCT025 OVC060
      TEMPO 1810/1813 BKN025 OVC060
     FM181300 02010KT P6SM BKN030 OVC100
     FM181700 02012KT P6SM BKN040
     FM190200 VRB03KT P6SM BKN050=

USA.gov is the U.S. government's official web portal to all federal, state and local government web resources and services.